Latest Weather Observations for Banana Bank

IDQ60801

Issued at 10:32 am EST Thursday 21 November 2019 (issued every 10 minutes, with the page automatically refreshed every 10 minutes)

About weather observations | Map of weather stations | Latest weather observations for QLD | Other Formats
Station Details ID: 040925 Name: BANANA BANK NORTH BEACON Lat: -27.53 Lon: 153.33 Height: 7.0 m
Data from the previous 72 hours. | See also: Recent months at Banana Bank
Date/Time
EST
Temp
°C
App
Temp
°C
Dew
Point
°C
Rel
Hum
%
Delta-T
°C
Wind Press
QNH
hPa
Press
MSL
hPa
Rain since
9am
mm
Dir  Spd
km/h
Gust
km/h
Spd
kts
Gust
kts
21/10:30am - - - - - N 20 24 11 13 - - -
21/10:00am - - - - - N 22 26 12 14 - - -
21/09:30am - - - - - NNE 20 26 11 14 - - -
21/09:00am - - - - - NNE 19 22 10 12 - - -
21/08:30am - - - - - NNE 19 26 10 14 - - -
21/08:00am - - - - - NNE 20 26 11 14 - - -
21/07:30am - - - - - NNE 20 28 11 15 - - -
21/07:00am - - - - - NE 24 30 13 16 - - -
21/06:30am - - - - - NE 24 30 13 16 - - -
21/06:00am - - - - - NNE 22 26 12 14 - - -
21/05:30am - - - - - NE 22 28 12 15 - - -
21/05:00am - - - - - NE 24 28 13 15 - - -
21/04:30am - - - - - NE 22 28 12 15 - - -
21/04:00am - - - - - NE 20 28 11 15 - - -
21/03:30am - - - - - NE 20 24 11 13 - - -
21/03:00am - - - - - ENE 20 24 11 13 - - -
21/02:30am - - - - - NE 20 24 11 13 - - -
21/02:00am - - - - - ENE 20 24 11 13 - - -
21/01:30am - - - - - ENE 20 22 11 12 - - -
21/01:00am - - - - - NE 20 24 11 13 - - -
21/12:30am - - - - - NE 22 24 12 13 - - -
21/12:00am - - - - - NE 22 26 12 14 - - -
 
Date/Time
EST
Temp
°C
App
Temp
°C
Dew
Point
°C
Rel
Hum
%
Delta-T
°C
Wind Press
QNH
hPa
Press
MSL
hPa
Rain since
9am
mm
Dir  Spd
km/h
Gust
km/h
Spd
kts
Gust
kts
20/11:30pm - - - - - NE 24 28 13 15 - - -
20/11:00pm - - - - - NE 24 30 13 16 - - -
20/10:30pm - - - - - NE 24 28 13 15 - - -
20/10:00pm - - - - - NE 22 28 12 15 - - -
20/09:30pm - - - - - NE 24 28 13 15 - - -
20/09:00pm - - - - - NE 24 28 13 15 - - -
20/08:30pm - - - - - NE 24 28 13 15 - - -
20/08:00pm - - - - - NE 22 28 12 15 - - -
20/07:30pm - - - - - NE 22 28 12 15 - - -
20/07:00pm - - - - - NE 22 30 12 16 - - -
20/06:30pm - - - - - NNE 20 26 11 14 - - -
20/06:00pm - - - - - NE 24 30 13 16 - - -
20/05:30pm - - - - - NNE 26 32 14 17 - - -
20/05:00pm - - - - - NNE 24 32 13 17 - - -
20/04:30pm - - - - - N 28 37 15 20 - - -
20/04:00pm - - - - - NNE 30 39 16 21 - - -
20/03:30pm - - - - - NE 35 43 19 23 - - -
20/03:00pm - - - - - NE 33 43 18 23 - - -
20/02:30pm - - - - - NE 32 39 17 21 - - -
20/02:00pm - - - - - NE 30 35 16 19 - - -
20/01:30pm - - - - - NNE 24 32 13 17 - - -
20/01:00pm - - - - - NNE 24 30 13 16 - - -
20/12:30pm - - - - - NNE 24 30 13 16 - - -
20/12:00pm - - - - - N 20 26 11 14 - - -
20/11:30am - - - - - N 24 26 13 14 - - -
20/11:00am - - - - - N 22 24 12 13 - - -
20/10:30am - - - - - N 22 24 12 13 - - -
20/10:00am - - - - - N 20 24 11 13 - - -
20/09:30am - - - - - N 17 19 9 10 - - -
20/09:00am - - - - - NNW 19 20 10 11 - - -
20/08:30am - - - - - NNW 19 22 10 12 - - -
20/08:00am - - - - - NNW 19 22 10 12 - - -
20/07:30am - - - - - NNW 20 24 11 13 - - -
20/07:00am - - - - - NNW 20 22 11 12 - - -
20/06:30am - - - - - NNW 19 22 10 12 - - -
20/06:00am - - - - - NW 13 17 7 9 - - -
20/05:30am - - - - - WNW 13 17 7 9 - - -
20/05:00am - - - - - NW 19 30 10 16 - - -
20/04:30am - - - - - N 26 30 14 16 - - -
20/04:00am - - - - - N 28 32 15 17 - - -
20/03:30am - - - - - N 28 33 15 18 - - -
20/03:00am - - - - - N 22 28 12 15 - - -
20/02:30am - - - - - N 22 28 12 15 - - -
20/02:00am - - - - - N 28 35 15 19 - - -
20/01:30am - - - - - N 30 35 16 19 - - -
20/01:00am - - - - - N 28 33 15 18 - - -
20/12:30am - - - - - N 26 32 14 17 - - -
20/12:00am - - - - - N 30 35 16 19 - - -
 
Date/Time
EST
Temp
°C
App
Temp
°C
Dew
Point
°C
Rel
Hum
%
Delta-T
°C
Wind Press
QNH
hPa
Press
MSL
hPa
Rain since
9am
mm
Dir  Spd
km/h
Gust
km/h
Spd
kts
Gust
kts
19/11:30pm - - - - - N 32 35 17 19 - - -
19/11:00pm - - - - - N 30 35 16 19 - - -
19/10:30pm - - - - - N 28 33 15 18 - - -
19/10:00pm - - - - - N 30 35 16 19 - - -
19/09:30pm - - - - - N 26 33 14 18 - - -
19/09:00pm - - - - - N 24 28 13 15 - - -
19/08:30pm - - - - - N 28 32 15 17 - - -
19/08:00pm - - - - - N 26 32 14 17 - - -
19/07:30pm - - - - - N 28 33 15 18 - - -
19/07:00pm - - - - - N 30 35 16 19 - - -
19/06:30pm - - - - - N 30 35 16 19 - - -
19/06:00pm - - - - - NNE 26 32 14 17 - - -
19/05:30pm - - - - - N 30 35 16 19 - - -
19/05:00pm - - - - - NNE 30 37 16 20 - - -
19/04:30pm - - - - - NNE 26 33 14 18 - - -
19/04:00pm - - - - - NNE 28 35 15 19 - - -
19/03:30pm - - - - - NNE 28 35 15 19 - - -
19/03:00pm - - - - - NNE 28 33 15 18 - - -
19/02:30pm - - - - - NNE 26 30 14 16 - - -
19/02:00pm - - - - - NNE 22 26 12 14 - - -
19/01:30pm - - - - - N 26 30 14 16 - - -
19/01:00pm - - - - - N 24 28 13 15 - - -
19/12:30pm - - - - - N 24 28 13 15 - - -
19/12:00pm - - - - - N 24 26 13 14 - - -
19/11:30am - - - - - N 22 24 12 13 - - -
19/11:00am - - - - - N 19 22 10 12 - - -
19/10:30am - - - - - N 19 22 10 12 - - -
19/10:00am - - - - - NNW 19 22 10 12 - - -
19/09:30am - - - - - NNW 15 20 8 11 - - -
19/09:00am - - - - - NNW 6 9 3 5 - - -
19/08:30am - - - - - W 2 6 1 3 - - -
19/08:00am - - - - - S 2 6 1 3 - - -
19/07:30am - - - - - SW 7 9 4 5 - - -
19/07:00am - - - - - SW 13 15 7 8 - - -
19/06:30am - - - - - WSW 11 13 6 7 - - -
19/06:00am - - - - - SW 9 11 5 6 - - -
19/05:30am - - - - - SW 9 11 5 6 - - -
19/05:00am - - - - - SW 11 15 6 8 - - -
19/04:30am - - - - - NW 9 13 5 7 - - -
19/04:00am - - - - - N 9 13 5 7 - - -
19/03:30am - - - - - N 9 13 5 7 - - -
19/03:00am - - - - - N 11 17 6 9 - - -
19/02:30am - - - - - NNE 11 13 6 7 - - -
19/02:00am - - - - - N 15 17 8 9 - - -
19/01:30am - - - - - N 17 20 9 11 - - -
19/01:00am - - - - - NNE 9 15 5 8 - - -
19/12:30am - - - - - NNE 11 15 6 8 - - -
19/12:00am - - - - - NE 13 17 7 9 - - -
 
Date/Time
EST
Temp
°C
App
Temp
°C
Dew
Point
°C
Rel
Hum
%
Delta-T
°C
Wind Press
QNH
hPa
Press
MSL
hPa
Rain since
9am
mm
Dir  Spd
km/h
Gust
km/h
Spd
kts
Gust
kts
18/11:30pm - - - - - NE 11 13 6 7 - - -
18/11:00pm - - - - - NE 13 17 7 9 - - -
18/10:30pm - - - - - NE 15 19 8 10 - - -
18/10:00pm - - - - - ENE 13 17 7 9 - - -
18/09:30pm - - - - - ENE 13 17 7 9 - - -
18/09:00pm - - - - - NE 13 15 7 8 - - -
18/08:30pm - - - - - NE 15 19 8 10 - - -
18/08:00pm - - - - - NE 19 22 10 12 - - -
18/07:30pm - - - - - ENE 17 20 9 11 - - -
18/07:00pm - - - - - ENE 17 20 9 11 - - -
18/06:30pm - - - - - E 17 20 9 11 - - -
18/06:00pm - - - - - ESE 19 22 10 12 - - -
18/05:30pm - - - - - ESE 19 22 10 12 - - -
18/05:00pm - - - - - ESE 19 26 10 14 - - -
18/04:30pm - - - - - ESE 20 24 11 13 - - -
18/04:00pm - - - - - SE 22 28 12 15 - - -
18/03:30pm - - - - - SE 20 28 11 15 - - -
18/03:00pm - - - - - SE 22 26 12 14 - - -
18/02:30pm - - - - - SE 20 26 11 14 - - -
18/02:00pm - - - - - SE 20 30 11 16 - - -
18/01:30pm - - - - - SE 20 28 11 15 - - -
18/01:00pm - - - - - SE 22 28 12 15 - - -
18/12:30pm - - - - - SE 22 28 12 15 - - -
18/12:00pm - - - - - SE 22 28 12 15 - - -
18/11:30am - - - - - SE 24 30 13 16 - - -
18/11:00am - - - - - SE 24 30 13 16 - - -

Other formats

Comma delimited format used in spreadsheet applications
http://www.bom.gov.au/fwo/IDQ60801/IDQ60801.94591.axf

JavaScript Object Notation format (JSON) in row-major order
http://www.bom.gov.au/fwo/IDQ60801/IDQ60801.94591.json

Data quality

Most of these data are generated automatically and are frequently updated. Quality checks on data are not normally performed. It is possible for incorrect values to appear. Refer to information at About Latest Weather Observations and please check the disclaimer before using these data.